sensor_id;sensor_type;location;lat;lon;timestamp;temperature;humidity
6792;DHT22;3433;48.730;9.108;2023-09-19T00:00:24;17.60;99.90
6792;DHT22;3433;48.730;9.108;2023-09-19T00:03:15;17.80;99.90
6792;DHT22;3433;48.730;9.108;2023-09-19T00:06:02;18.00;99.90
6792;DHT22;3433;48.730;9.108;2023-09-19T00:08:50;18.20;99.90
6792;DHT22;3433;48.730;9.108;2023-09-19T00:11:37;18.10;99.90
6792;DHT22;3433;48.730;9.108;2023-09-19T00:14:25;18.00;99.90
6792;DHT22;3433;48.730;9.108;2023-09-19T00:17:12;18.10;99.90
6792;DHT22;3433;48.730;9.108;2023-09-19T00:20:00;18.00;99.90
6792;DHT22;3433;48.730;9.108;2023-09-19T00:22:59;18.10;99.90
6792;DHT22;3433;48.730;9.108;2023-09-19T00:25:51;18.00;99.90
6792;DHT22;3433;48.730;9.108;2023-09-19T00:28:43;18.10;99.90
6792;DHT22;3433;48.730;9.108;2023-09-19T00:31:30;18.20;99.90
6792;DHT22;3433;48.730;9.108;2023-09-19T00:34:17;18.00;99.90
6792;DHT22;3433;48.730;9.108;2023-09-19T00:37:07;17.90;99.90
6792;DHT22;3433;48.730;9.108;2023-09-19T00:39:57;17.90;99.90
6792;DHT22;3433;48.730;9.108;2023-09-19T00:42:45;18.00;99.90
6792;DHT22;3433;48.730;9.108;2023-09-19T00:45:32;18.00;99.90
6792;DHT22;3433;48.730;9.108;2023-09-19T00:48:22;18.00;99.90
6792;DHT22;3433;48.730;9.108;2023-09-19T00:51:10;18.00;99.90
6792;DHT22;3433;48.730;9.108;2023-09-19T00:54:01;17.90;99.90
6792;DHT22;3433;48.730;9.108;2023-09-19T00:56:50;18.10;99.90
6792;DHT22;3433;48.730;9.108;2023-09-19T00:59:40;17.90;99.90
6792;DHT22;3433;48.730;9.108;2023-09-19T01:02:28;18.10;99.90
6792;DHT22;3433;48.730;9.108;2023-09-19T01:05:16;18.10;99.90
6792;DHT22;3433;48.730;9.108;2023-09-19T01:08:04;18.10;99.90
6792;DHT22;3433;48.730;9.108;2023-09-19T01:11:01;18.20;99.90
6792;DHT22;3433;48.730;9.108;2023-09-19T01:13:56;18.30;99.90
6792;DHT22;3433;48.730;9.108;2023-09-19T01:16:50;18.10;99.90
6792;DHT22;3433;48.730;9.108;2023-09-19T01:20:13;17.80;99.90
6792;DHT22;3433;48.730;9.108;2023-09-19T01:23:11;17.90;99.90
6792;DHT22;3433;48.730;9.108;2023-09-19T01:26:10;17.90;99.90
6792;DHT22;3433;48.730;9.108;2023-09-19T01:29:16;17.90;99.90
6792;DHT22;3433;48.730;9.108;2023-09-19T01:32:08;18.00;99.90
6792;DHT22;3433;48.730;9.108;2023-09-19T01:34:57;18.00;99.90
6792;DHT22;3433;48.730;9.108;2023-09-19T01:37:49;18.00;99.90
6792;DHT22;3433;48.730;9.108;2023-09-19T01:40:41;18.00;99.90
6792;DHT22;3433;48.730;9.108;2023-09-19T01:43:32;18.00;99.90
6792;DHT22;3433;48.730;9.108;2023-09-19T01:46:25;18.00;99.90
6792;DHT22;3433;48.730;9.108;2023-09-19T01:49:25;18.00;99.90
6792;DHT22;3433;48.730;9.108;2023-09-19T01:52:15;18.10;99.90
6792;DHT22;3433;48.730;9.108;2023-09-19T01:55:06;18.10;99.90
6792;DHT22;3433;48.730;9.108;2023-09-19T01:58:01;18.10;99.90
6792;DHT22;3433;48.730;9.108;2023-09-19T02:00:52;18.30;99.90
6792;DHT22;3433;48.730;9.108;2023-09-19T02:03:41;18.30;99.90
6792;DHT22;3433;48.730;9.108;2023-09-19T02:06:32;18.20;99.90
6792;DHT22;3433;48.730;9.108;2023-09-19T02:09:20;18.10;99.90
6792;DHT22;3433;48.730;9.108;2023-09-19T02:12:07;18.10;99.90
6792;DHT22;3433;48.730;9.108;2023-09-19T02:14:55;17.90;99.90
6792;DHT22;3433;48.730;9.108;2023-09-19T02:17:43;18.00;99.90
6792;DHT22;3433;48.730;9.108;2023-09-19T02:20:31;18.10;99.90
6792;DHT22;3433;48.730;9.108;2023-09-19T02:23:20;18.00;99.90
6792;DHT22;3433;48.730;9.108;2023-09-19T02:26:07;18.00;99.90
6792;DHT22;3433;48.730;9.108;2023-09-19T02:28:55;18.00;99.90
6792;DHT22;3433;48.730;9.108;2023-09-19T02:31:42;18.00;99.90
6792;DHT22;3433;48.730;9.108;2023-09-19T02:34:29;17.90;99.90
6792;DHT22;3433;48.730;9.108;2023-09-19T02:37:16;17.90;99.90
6792;DHT22;3433;48.730;9.108;2023-09-19T02:40:07;17.90;99.90
6792;DHT22;3433;48.730;9.108;2023-09-19T02:43:04;17.70;99.90
6792;DHT22;3433;48.730;9.108;2023-09-19T02:45:54;17.70;99.90
6792;DHT22;3433;48.730;9.108;2023-09-19T02:48:43;17.80;99.90
6792;DHT22;3433;48.730;9.108;2023-09-19T02:51:30;17.90;99.90
6792;DHT22;3433;48.730;9.108;2023-09-19T02:54:18;17.90;99.90
6792;DHT22;3433;48.730;9.108;2023-09-19T02:57:07;17.90;99.90
6792;DHT22;3433;48.730;9.108;2023-09-19T02:59:55;18.10;99.90
6792;DHT22;3433;48.730;9.108;2023-09-19T03:02:43;18.00;99.90
6792;DHT22;3433;48.730;9.108;2023-09-19T03:05:30;17.90;99.90
6792;DHT22;3433;48.730;9.108;2023-09-19T03:08:17;17.90;99.90
6792;DHT22;3433;48.730;9.108;2023-09-19T03:11:05;18.00;99.90
6792;DHT22;3433;48.730;9.108;2023-09-19T03:13:55;18.10;99.90
6792;DHT22;3433;48.730;9.108;2023-09-19T03:16:42;18.10;99.90
6792;DHT22;3433;48.730;9.108;2023-09-19T03:19:30;18.20;99.90
6792;DHT22;3433;48.730;9.108;2023-09-19T03:22:19;18.20;99.90
6792;DHT22;3433;48.730;9.108;2023-09-19T03:25:07;18.10;99.90
6792;DHT22;3433;48.730;9.108;2023-09-19T03:27:56;18.20;99.90
6792;DHT22;3433;48.730;9.108;2023-09-19T03:30:45;18.20;99.90
6792;DHT22;3433;48.730;9.108;2023-09-19T03:33:33;17.90;99.90
6792;DHT22;3433;48.730;9.108;2023-09-19T03:36:20;18.00;99.90
6792;DHT22;3433;48.730;9.108;2023-09-19T03:39:08;17.90;99.90
6792;DHT22;3433;48.730;9.108;2023-09-19T03:41:56;18.00;99.90
6792;DHT22;3433;48.730;9.108;2023-09-19T03:44:43;17.80;99.90
6792;DHT22;3433;48.730;9.108;2023-09-19T03:47:32;17.50;99.90
6792;DHT22;3433;48.730;9.108;2023-09-19T03:50:19;17.70;99.90
6792;DHT22;3433;48.730;9.108;2023-09-19T03:53:06;17.80;99.90
6792;DHT22;3433;48.730;9.108;2023-09-19T03:55:53;17.80;99.90
6792;DHT22;3433;48.730;9.108;2023-09-19T03:58:41;17.80;99.90
6792;DHT22;3433;48.730;9.108;2023-09-19T04:01:28;17.70;99.90
6792;DHT22;3433;48.730;9.108;2023-09-19T04:04:19;17.90;99.90
6792;DHT22;3433;48.730;9.108;2023-09-19T04:07:06;17.80;99.90
6792;DHT22;3433;48.730;9.108;2023-09-19T04:09:54;17.90;99.90
6792;DHT22;3433;48.730;9.108;2023-09-19T04:12:44;17.90;99.90
6792;DHT22;3433;48.730;9.108;2023-09-19T04:15:37;17.90;99.90
6792;DHT22;3433;48.730;9.108;2023-09-19T04:18:26;18.20;99.90
6792;DHT22;3433;48.730;9.108;2023-09-19T04:21:14;18.20;99.90
6792;DHT22;3433;48.730;9.108;2023-09-19T04:24:02;18.20;99.90
6792;DHT22;3433;48.730;9.108;2023-09-19T04:26:49;18.30;99.90
6792;DHT22;3433;48.730;9.108;2023-09-19T04:29:36;18.10;99.90
6792;DHT22;3433;48.730;9.108;2023-09-19T04:32:23;18.20;99.90
6792;DHT22;3433;48.730;9.108;2023-09-19T04:35:11;18.30;99.90
6792;DHT22;3433;48.730;9.108;2023-09-19T04:37:59;18.30;99.90
6792;DHT22;3433;48.730;9.108;2023-09-19T04:40:46;18.30;99.90
6792;DHT22;3433;48.730;9.108;2023-09-19T04:43:34;18.20;99.90
6792;DHT22;3433;48.730;9.108;2023-09-19T04:46:21;18.10;99.90
6792;DHT22;3433;48.730;9.108;2023-09-19T04:49:08;18.00;99.90
6792;DHT22;3433;48.730;9.108;2023-09-19T04:51:55;18.00;99.90
6792;DHT22;3433;48.730;9.108;2023-09-19T04:54:44;18.20;99.90
6792;DHT22;3433;48.730;9.108;2023-09-19T04:57:31;18.10;99.90
6792;DHT22;3433;48.730;9.108;2023-09-19T05:00:20;18.10;99.90
6792;DHT22;3433;48.730;9.108;2023-09-19T05:03:09;18.30;99.90
6792;DHT22;3433;48.730;9.108;2023-09-19T05:05:56;18.30;99.90
6792;DHT22;3433;48.730;9.108;2023-09-19T05:08:43;18.30;99.90
6792;DHT22;3433;48.730;9.108;2023-09-19T05:11:32;18.10;99.90
6792;DHT22;3433;48.730;9.108;2023-09-19T05:14:19;18.10;99.90
6792;DHT22;3433;48.730;9.108;2023-09-19T05:17:08;18.20;99.90
6792;DHT22;3433;48.730;9.108;2023-09-19T05:19:55;18.20;99.90
6792;DHT22;3433;48.730;9.108;2023-09-19T05:22:42;18.00;99.90
6792;DHT22;3433;48.730;9.108;2023-09-19T05:25:32;18.00;99.90
6792;DHT22;3433;48.730;9.108;2023-09-19T05:28:25;18.00;99.90
6792;DHT22;3433;48.730;9.108;2023-09-19T05:31:12;17.90;99.90
6792;DHT22;3433;48.730;9.108;2023-09-19T05:33:59;17.70;99.90
6792;DHT22;3433;48.730;9.108;2023-09-19T05:36:47;17.60;99.90
6792;DHT22;3433;48.730;9.108;2023-09-19T05:39:35;17.90;99.90
6792;DHT22;3433;48.730;9.108;2023-09-19T05:42:23;17.70;99.90
6792;DHT22;3433;48.730;9.108;2023-09-19T05:45:11;17.70;99.90
6792;DHT22;3433;48.730;9.108;2023-09-19T05:48:07;17.70;99.90
6792;DHT22;3433;48.730;9.108;2023-09-19T05:50:54;17.60;99.90
6792;DHT22;3433;48.730;9.108;2023-09-19T05:53:42;17.70;99.90
6792;DHT22;3433;48.730;9.108;2023-09-19T05:56:29;17.90;99.90
6792;DHT22;3433;48.730;9.108;2023-09-19T05:59:17;18.00;99.90
6792;DHT22;3433;48.730;9.108;2023-09-19T06:02:05;18.10;99.90
6792;DHT22;3433;48.730;9.108;2023-09-19T06:04:52;18.10;99.90
6792;DHT22;3433;48.730;9.108;2023-09-19T06:07:41;18.00;99.90
6792;DHT22;3433;48.730;9.108;2023-09-19T06:10:28;18.10;99.90
6792;DHT22;3433;48.730;9.108;2023-09-19T06:13:17;18.20;99.90
6792;DHT22;3433;48.730;9.108;2023-09-19T06:16:05;18.10;99.90
6792;DHT22;3433;48.730;9.108;2023-09-19T06:18:54;17.90;99.90
6792;DHT22;3433;48.730;9.108;2023-09-19T06:21:41;18.10;99.90
6792;DHT22;3433;48.730;9.108;2023-09-19T06:24:29;17.90;99.90
6792;DHT22;3433;48.730;9.108;2023-09-19T06:27:16;17.70;99.90
6792;DHT22;3433;48.730;9.108;2023-09-19T06:30:05;17.60;99.90
6792;DHT22;3433;48.730;9.108;2023-09-19T06:32:57;17.70;99.90
6792;DHT22;3433;48.730;9.108;2023-09-19T06:35:45;17.70;99.90
6792;DHT22;3433;48.730;9.108;2023-09-19T06:38:33;17.90;99.90
6792;DHT22;3433;48.730;9.108;2023-09-19T06:41:22;18.10;99.90
6792;DHT22;3433;48.730;9.108;2023-09-19T06:44:10;18.20;99.90
6792;DHT22;3433;48.730;9.108;2023-09-19T06:46:58;18.20;99.90
6792;DHT22;3433;48.730;9.108;2023-09-19T06:49:45;18.40;99.90
6792;DHT22;3433;48.730;9.108;2023-09-19T06:52:34;18.40;99.90
6792;DHT22;3433;48.730;9.108;2023-09-19T06:55:22;18.40;99.90
6792;DHT22;3433;48.730;9.108;2023-09-19T06:58:11;18.50;99.90
6792;DHT22;3433;48.730;9.108;2023-09-19T07:00:58;18.50;99.90
6792;DHT22;3433;48.730;9.108;2023-09-19T07:03:45;18.50;99.90
6792;DHT22;3433;48.730;9.108;2023-09-19T07:06:33;18.50;99.90
6792;DHT22;3433;48.730;9.108;2023-09-19T07:09:22;18.50;99.90
6792;DHT22;3433;48.730;9.108;2023-09-19T07:12:09;18.60;99.90
6792;DHT22;3433;48.730;9.108;2023-09-19T07:14:58;18.70;99.90
6792;DHT22;3433;48.730;9.108;2023-09-19T07:17:45;18.60;99.90
6792;DHT22;3433;48.730;9.108;2023-09-19T07:20:33;18.60;99.90
6792;DHT22;3433;48.730;9.108;2023-09-19T07:23:21;18.70;99.90
6792;DHT22;3433;48.730;9.108;2023-09-19T07:26:11;18.60;99.90
6792;DHT22;3433;48.730;9.108;2023-09-19T07:28:59;18.40;99.90
6792;DHT22;3433;48.730;9.108;2023-09-19T07:31:48;18.40;99.90
6792;DHT22;3433;48.730;9.108;2023-09-19T07:34:35;18.40;99.90
6792;DHT22;3433;48.730;9.108;2023-09-19T07:37:24;18.70;99.90
6792;DHT22;3433;48.730;9.108;2023-09-19T07:40:12;18.70;99.90
6792;DHT22;3433;48.730;9.108;2023-09-19T07:43:01;18.60;99.90
6792;DHT22;3433;48.730;9.108;2023-09-19T07:45:50;18.70;99.90
6792;DHT22;3433;48.730;9.108;2023-09-19T07:48:38;18.80;99.90
6792;DHT22;3433;48.730;9.108;2023-09-19T07:51:26;18.90;99.90
6792;DHT22;3433;48.730;9.108;2023-09-19T07:54:14;18.80;99.90
6792;DHT22;3433;48.730;9.108;2023-09-19T07:57:02;18.90;99.90
6792;DHT22;3433;48.730;9.108;2023-09-19T07:59:51;19.00;99.90
6792;DHT22;3433;48.730;9.108;2023-09-19T08:02:40;19.10;99.90
6792;DHT22;3433;48.730;9.108;2023-09-19T08:05:27;19.40;99.90
6792;DHT22;3433;48.730;9.108;2023-09-19T08:08:14;19.40;99.90
6792;DHT22;3433;48.730;9.108;2023-09-19T08:11:01;19.60;99.90
6792;DHT22;3433;48.730;9.108;2023-09-19T08:13:50;19.70;99.90
6792;DHT22;3433;48.730;9.108;2023-09-19T08:16:39;19.90;99.90
6792;DHT22;3433;48.730;9.108;2023-09-19T08:19:28;19.70;99.90
6792;DHT22;3433;48.730;9.108;2023-09-19T08:22:17;19.90;99.90
6792;DHT22;3433;48.730;9.108;2023-09-19T08:25:05;20.00;99.90
6792;DHT22;3433;48.730;9.108;2023-09-19T08:27:53;20.20;99.90
6792;DHT22;3433;48.730;9.108;2023-09-19T08:30:44;20.30;99.90
6792;DHT22;3433;48.730;9.108;2023-09-19T08:33:33;20.20;99.90
6792;DHT22;3433;48.730;9.108;2023-09-19T08:36:21;20.10;99.90
6792;DHT22;3433;48.730;9.108;2023-09-19T08:39:08;20.10;99.90
6792;DHT22;3433;48.730;9.108;2023-09-19T08:41:57;20.00;99.90
6792;DHT22;3433;48.730;9.108;2023-09-19T08:44:45;19.80;99.90
6792;DHT22;3433;48.730;9.108;2023-09-19T08:47:36;19.50;99.90
6792;DHT22;3433;48.730;9.108;2023-09-19T08:50:29;19.70;99.90
6792;DHT22;3433;48.730;9.108;2023-09-19T08:53:21;19.70;99.90
6792;DHT22;3433;48.730;9.108;2023-09-19T08:56:12;19.60;99.90
6792;DHT22;3433;48.730;9.108;2023-09-19T08:59:02;19.50;99.90
6792;DHT22;3433;48.730;9.108;2023-09-19T09:01:50;19.60;99.90
6792;DHT22;3433;48.730;9.108;2023-09-19T09:04:41;19.80;99.90
6792;DHT22;3433;48.730;9.108;2023-09-19T09:07:43;19.80;99.90
6792;DHT22;3433;48.730;9.108;2023-09-19T09:10:31;19.80;99.90
6792;DHT22;3433;48.730;9.108;2023-09-19T09:13:18;20.00;99.90
6792;DHT22;3433;48.730;9.108;2023-09-19T09:16:08;20.20;99.90
6792;DHT22;3433;48.730;9.108;2023-09-19T09:18:55;20.20;99.90
6792;DHT22;3433;48.730;9.108;2023-09-19T09:21:42;20.30;99.90
6792;DHT22;3433;48.730;9.108;2023-09-19T09:24:31;20.30;99.90
6792;DHT22;3433;48.730;9.108;2023-09-19T09:27:20;20.30;99.90
6792;DHT22;3433;48.730;9.108;2023-09-19T09:30:10;20.30;99.90
6792;DHT22;3433;48.730;9.108;2023-09-19T09:33:17;20.30;99.90
6792;DHT22;3433;48.730;9.108;2023-09-19T09:36:05;20.20;99.90
6792;DHT22;3433;48.730;9.108;2023-09-19T09:38:54;20.20;99.90
6792;DHT22;3433;48.730;9.108;2023-09-19T09:41:43;20.00;99.90
6792;DHT22;3433;48.730;9.108;2023-09-19T09:44:31;20.10;99.90
6792;DHT22;3433;48.730;9.108;2023-09-19T09:47:41;20.10;99.90
6792;DHT22;3433;48.730;9.108;2023-09-19T09:50:36;20.20;99.90
6792;DHT22;3433;48.730;9.108;2023-09-19T09:53:36;20.20;99.90
6792;DHT22;3433;48.730;9.108;2023-09-19T09:56:24;20.20;99.90
6792;DHT22;3433;48.730;9.108;2023-09-19T09:59:14;20.10;99.90
6792;DHT22;3433;48.730;9.108;2023-09-19T10:02:03;19.90;99.90
6792;DHT22;3433;48.730;9.108;2023-09-19T10:04:52;20.00;99.90
6792;DHT22;3433;48.730;9.108;2023-09-19T10:07:45;20.10;99.90
6792;DHT22;3433;48.730;9.108;2023-09-19T10:10:36;20.40;99.90
6792;DHT22;3433;48.730;9.108;2023-09-19T10:13:39;20.60;99.90
6792;DHT22;3433;48.730;9.108;2023-09-19T10:16:30;20.90;99.90
6792;DHT22;3433;48.730;9.108;2023-09-19T10:19:23;20.90;99.90
6792;DHT22;3433;48.730;9.108;2023-09-19T10:22:11;21.10;99.90
6792;DHT22;3433;48.730;9.108;2023-09-19T10:24:59;21.20;99.90
6792;DHT22;3433;48.730;9.108;2023-09-19T10:27:50;21.20;99.90
6792;DHT22;3433;48.730;9.108;2023-09-19T10:30:41;21.70;99.90
6792;DHT22;3433;48.730;9.108;2023-09-19T10:33:36;22.00;99.90
6792;DHT22;3433;48.730;9.108;2023-09-19T10:36:24;22.20;99.90
6792;DHT22;3433;48.730;9.108;2023-09-19T10:39:14;22.30;99.90
6792;DHT22;3433;48.730;9.108;2023-09-19T10:42:06;22.60;99.90
6792;DHT22;3433;48.730;9.108;2023-09-19T10:44:55;22.50;99.70
6792;DHT22;3433;48.730;9.108;2023-09-19T10:47:46;22.50;98.60
6792;DHT22;3433;48.730;9.108;2023-09-19T10:50:43;22.30;97.80
6792;DHT22;3433;48.730;9.108;2023-09-19T10:53:41;22.60;99.40
6792;DHT22;3433;48.730;9.108;2023-09-19T10:56:31;22.40;98.30
6792;DHT22;3433;48.730;9.108;2023-09-19T10:59:22;22.40;98.80
6792;DHT22;3433;48.730;9.108;2023-09-19T11:02:17;22.30;99.00
6792;DHT22;3433;48.730;9.108;2023-09-19T11:05:12;22.60;98.40
6792;DHT22;3433;48.730;9.108;2023-09-19T11:08:01;22.80;99.60
6792;DHT22;3433;48.730;9.108;2023-09-19T11:10:51;22.50;98.80
6792;DHT22;3433;48.730;9.108;2023-09-19T11:13:38;22.40;97.70
6792;DHT22;3433;48.730;9.108;2023-09-19T11:16:27;22.40;97.70
6792;DHT22;3433;48.730;9.108;2023-09-19T11:19:14;22.70;98.70
6792;DHT22;3433;48.730;9.108;2023-09-19T11:22:02;22.80;99.40
6792;DHT22;3433;48.730;9.108;2023-09-19T11:24:51;23.00;99.90
6792;DHT22;3433;48.730;9.108;2023-09-19T11:31:50;22.90;98.60
6792;DHT22;3433;48.730;9.108;2023-09-19T11:34:48;22.70;98.70
6792;DHT22;3433;48.730;9.108;2023-09-19T11:38:01;22.50;97.50
6792;DHT22;3433;48.730;9.108;2023-09-19T11:41:40;22.40;98.30
6792;DHT22;3433;48.730;9.108;2023-09-19T11:44:34;22.60;98.70
6792;DHT22;3433;48.730;9.108;2023-09-19T11:47:24;22.30;98.40
6792;DHT22;3433;48.730;9.108;2023-09-19T11:50:11;22.50;99.90
6792;DHT22;3433;48.730;9.108;2023-09-19T11:52:59;22.60;99.50
6792;DHT22;3433;48.730;9.108;2023-09-19T11:55:46;22.50;97.90
6792;DHT22;3433;48.730;9.108;2023-09-19T11:58:35;22.40;97.60
6792;DHT22;3433;48.730;9.108;2023-09-19T12:01:25;22.20;97.80
6792;DHT22;3433;48.730;9.108;2023-09-19T12:04:15;22.30;98.90
6792;DHT22;3433;48.730;9.108;2023-09-19T12:07:04;22.20;98.50
6792;DHT22;3433;48.730;9.108;2023-09-19T12:10:03;22.30;99.10
6792;DHT22;3433;48.730;9.108;2023-09-19T12:12:52;22.20;99.10
6792;DHT22;3433;48.730;9.108;2023-09-19T12:15:43;22.40;99.40
6792;DHT22;3433;48.730;9.108;2023-09-19T12:18:33;22.20;98.30
6792;DHT22;3433;48.730;9.108;2023-09-19T12:21:26;22.10;97.80
6792;DHT22;3433;48.730;9.108;2023-09-19T12:24:15;21.90;97.60
6792;DHT22;3433;48.730;9.108;2023-09-19T12:27:05;22.20;98.70
6792;DHT22;3433;48.730;9.108;2023-09-19T12:29:53;22.40;98.60
6792;DHT22;3433;48.730;9.108;2023-09-19T12:32:43;22.10;97.30
6792;DHT22;3433;48.730;9.108;2023-09-19T12:35:31;22.30;98.40
6792;DHT22;3433;48.730;9.108;2023-09-19T12:38:25;22.50;97.60
6792;DHT22;3433;48.730;9.108;2023-09-19T12:41:14;22.50;98.10
6792;DHT22;3433;48.730;9.108;2023-09-19T12:44:01;22.70;97.70
6792;DHT22;3433;48.730;9.108;2023-09-19T12:46:54;22.50;97.20
6792;DHT22;3433;48.730;9.108;2023-09-19T12:50:11;22.70;97.40
6792;DHT22;3433;48.730;9.108;2023-09-19T12:53:03;22.40;97.50
6792;DHT22;3433;48.730;9.108;2023-09-19T12:55:58;22.60;98.40
6792;DHT22;3433;48.730;9.108;2023-09-19T12:58:53;23.00;97.40
6792;DHT22;3433;48.730;9.108;2023-09-19T13:01:41;23.00;97.70
6792;DHT22;3433;48.730;9.108;2023-09-19T13:04:32;23.10;96.70
6792;DHT22;3433;48.730;9.108;2023-09-19T13:07:43;23.20;96.30
6792;DHT22;3433;48.730;9.108;2023-09-19T13:10:31;23.30;97.10
6792;DHT22;3433;48.730;9.108;2023-09-19T13:13:24;23.30;98.60
6792;DHT22;3433;48.730;9.108;2023-09-19T13:16:14;23.70;97.70
6792;DHT22;3433;48.730;9.108;2023-09-19T13:19:05;23.80;96.30
6792;DHT22;3433;48.730;9.108;2023-09-19T13:21:52;23.50;95.80
6792;DHT22;3433;48.730;9.108;2023-09-19T13:24:43;23.70;96.40
6792;DHT22;3433;48.730;9.108;2023-09-19T13:27:30;23.80;96.20
6792;DHT22;3433;48.730;9.108;2023-09-19T13:30:17;23.50;96.40
6792;DHT22;3433;48.730;9.108;2023-09-19T13:33:05;23.80;96.90
6792;DHT22;3433;48.730;9.108;2023-09-19T13:35:53;23.40;96.90
6792;DHT22;3433;48.730;9.108;2023-09-19T13:38:41;23.40;96.30
6792;DHT22;3433;48.730;9.108;2023-09-19T13:41:31;23.60;96.60
6792;DHT22;3433;48.730;9.108;2023-09-19T13:44:18;23.70;95.80
6792;DHT22;3433;48.730;9.108;2023-09-19T13:47:05;23.70;94.70
6792;DHT22;3433;48.730;9.108;2023-09-19T13:49:56;23.80;95.60
6792;DHT22;3433;48.730;9.108;2023-09-19T13:52:43;24.10;96.00
6792;DHT22;3433;48.730;9.108;2023-09-19T13:55:30;23.80;95.90
6792;DHT22;3433;48.730;9.108;2023-09-19T13:58:18;24.00;96.00
6792;DHT22;3433;48.730;9.108;2023-09-19T14:01:07;23.80;95.20
6792;DHT22;3433;48.730;9.108;2023-09-19T14:03:58;23.70;96.80
6792;DHT22;3433;48.730;9.108;2023-09-19T14:06:45;23.80;96.50
6792;DHT22;3433;48.730;9.108;2023-09-19T14:09:32;23.80;96.50
6792;DHT22;3433;48.730;9.108;2023-09-19T14:12:21;23.70;95.40
6792;DHT22;3433;48.730;9.108;2023-09-19T14:15:11;23.90;96.60
6792;DHT22;3433;48.730;9.108;2023-09-19T14:17:59;23.80;94.60
6792;DHT22;3433;48.730;9.108;2023-09-19T14:20:46;23.70;95.40
6792;DHT22;3433;48.730;9.108;2023-09-19T14:23:37;24.00;96.60
6792;DHT22;3433;48.730;9.108;2023-09-19T14:26:24;23.90;94.80
6792;DHT22;3433;48.730;9.108;2023-09-19T14:29:11;23.80;95.00
6792;DHT22;3433;48.730;9.108;2023-09-19T14:32:00;23.80;95.10
6792;DHT22;3433;48.730;9.108;2023-09-19T14:34:47;23.60;94.50
6792;DHT22;3433;48.730;9.108;2023-09-19T14:37:34;23.50;95.60
6792;DHT22;3433;48.730;9.108;2023-09-19T14:40:21;23.80;94.90
6792;DHT22;3433;48.730;9.108;2023-09-19T14:43:09;23.80;94.60
6792;DHT22;3433;48.730;9.108;2023-09-19T14:45:56;23.70;93.20
6792;DHT22;3433;48.730;9.108;2023-09-19T14:48:45;23.70;93.30
6792;DHT22;3433;48.730;9.108;2023-09-19T14:51:33;23.60;93.90
6792;DHT22;3433;48.730;9.108;2023-09-19T14:54:21;23.60;94.30
6792;DHT22;3433;48.730;9.108;2023-09-19T14:57:09;23.90;95.30
6792;DHT22;3433;48.730;9.108;2023-09-19T14:59:57;23.90;93.90
6792;DHT22;3433;48.730;9.108;2023-09-19T15:02:44;23.70;93.10
6792;DHT22;3433;48.730;9.108;2023-09-19T15:05:36;24.00;95.00
6792;DHT22;3433;48.730;9.108;2023-09-19T15:08:23;23.90;93.40
6792;DHT22;3433;48.730;9.108;2023-09-19T15:11:11;24.10;94.70
6792;DHT22;3433;48.730;9.108;2023-09-19T15:13:58;23.90;93.50
6792;DHT22;3433;48.730;9.108;2023-09-19T15:16:45;24.10;93.80
6792;DHT22;3433;48.730;9.108;2023-09-19T15:19:32;24.20;93.70
6792;DHT22;3433;48.730;9.108;2023-09-19T15:22:21;24.20;93.70
6792;DHT22;3433;48.730;9.108;2023-09-19T15:25:08;24.30;94.10
6792;DHT22;3433;48.730;9.108;2023-09-19T15:27:55;24.20;95.00
6792;DHT22;3433;48.730;9.108;2023-09-19T15:30:43;24.10;93.70
6792;DHT22;3433;48.730;9.108;2023-09-19T15:33:31;24.00;94.00
6792;DHT22;3433;48.730;9.108;2023-09-19T15:36:18;24.10;94.90
6792;DHT22;3433;48.730;9.108;2023-09-19T15:39:07;24.20;95.10
6792;DHT22;3433;48.730;9.108;2023-09-19T15:41:56;24.30;94.10
6792;DHT22;3433;48.730;9.108;2023-09-19T15:44:44;24.00;93.40
6792;DHT22;3433;48.730;9.108;2023-09-19T15:47:32;23.70;93.00
6792;DHT22;3433;48.730;9.108;2023-09-19T15:50:20;23.50;93.80
6792;DHT22;3433;48.730;9.108;2023-09-19T15:53:07;23.60;94.50
6792;DHT22;3433;48.730;9.108;2023-09-19T15:55:56;23.70;93.40
6792;DHT22;3433;48.730;9.108;2023-09-19T15:58:44;23.40;92.80
6792;DHT22;3433;48.730;9.108;2023-09-19T16:01:31;23.30;94.70
6792;DHT22;3433;48.730;9.108;2023-09-19T16:04:19;23.10;93.10
6792;DHT22;3433;48.730;9.108;2023-09-19T16:07:06;23.30;95.10
6792;DHT22;3433;48.730;9.108;2023-09-19T16:09:53;23.30;95.20
6792;DHT22;3433;48.730;9.108;2023-09-19T16:12:42;23.30;94.30
6792;DHT22;3433;48.730;9.108;2023-09-19T16:15:29;23.40;95.60
6792;DHT22;3433;48.730;9.108;2023-09-19T16:18:16;23.40;94.50
6792;DHT22;3433;48.730;9.108;2023-09-19T16:21:04;23.20;93.90
6792;DHT22;3433;48.730;9.108;2023-09-19T16:23:51;23.30;95.70
6792;DHT22;3433;48.730;9.108;2023-09-19T16:26:39;23.40;96.00
6792;DHT22;3433;48.730;9.108;2023-09-19T16:29:28;23.50;96.10
6792;DHT22;3433;48.730;9.108;2023-09-19T16:32:15;23.50;96.00
6792;DHT22;3433;48.730;9.108;2023-09-19T16:35:02;23.50;95.30
6792;DHT22;3433;48.730;9.108;2023-09-19T16:37:49;23.40;94.90
6792;DHT22;3433;48.730;9.108;2023-09-19T16:40:36;23.40;96.20
6792;DHT22;3433;48.730;9.108;2023-09-19T16:43:24;23.50;96.30
6792;DHT22;3433;48.730;9.108;2023-09-19T16:46:13;23.30;96.00
6792;DHT22;3433;48.730;9.108;2023-09-19T16:49:02;23.40;96.40
6792;DHT22;3433;48.730;9.108;2023-09-19T16:51:50;23.50;96.20
6792;DHT22;3433;48.730;9.108;2023-09-19T16:54:37;23.50;96.80
6792;DHT22;3433;48.730;9.108;2023-09-19T16:57:25;23.50;96.90
6792;DHT22;3433;48.730;9.108;2023-09-19T17:00:13;23.50;97.00
6792;DHT22;3433;48.730;9.108;2023-09-19T17:03:04;23.40;96.90
6792;DHT22;3433;48.730;9.108;2023-09-19T17:05:56;23.40;96.60
6792;DHT22;3433;48.730;9.108;2023-09-19T17:08:43;23.40;96.90
6792;DHT22;3433;48.730;9.108;2023-09-19T17:11:31;23.40;96.90
6792;DHT22;3433;48.730;9.108;2023-09-19T17:14:19;23.40;97.10
6792;DHT22;3433;48.730;9.108;2023-09-19T17:17:07;23.40;97.20
6792;DHT22;3433;48.730;9.108;2023-09-19T17:19:55;23.30;96.90
6792;DHT22;3433;48.730;9.108;2023-09-19T17:22:43;23.30;97.00
6792;DHT22;3433;48.730;9.108;2023-09-19T17:25:30;23.20;97.20
6792;DHT22;3433;48.730;9.108;2023-09-19T17:28:18;23.20;97.30
6792;DHT22;3433;48.730;9.108;2023-09-19T17:31:10;23.20;97.30
6792;DHT22;3433;48.730;9.108;2023-09-19T17:33:58;23.10;97.40
6792;DHT22;3433;48.730;9.108;2023-09-19T17:36:46;23.10;97.70
6792;DHT22;3433;48.730;9.108;2023-09-19T17:39:33;23.00;97.60
6792;DHT22;3433;48.730;9.108;2023-09-19T17:42:20;23.00;97.10
6792;DHT22;3433;48.730;9.108;2023-09-19T17:45:10;22.90;97.30
6792;DHT22;3433;48.730;9.108;2023-09-19T17:47:57;22.70;97.00
6792;DHT22;3433;48.730;9.108;2023-09-19T17:50:45;22.50;97.10
6792;DHT22;3433;48.730;9.108;2023-09-19T17:53:34;22.40;97.00
6792;DHT22;3433;48.730;9.108;2023-09-19T17:56:22;22.30;97.10
6792;DHT22;3433;48.730;9.108;2023-09-19T17:59:10;22.10;97.00
6792;DHT22;3433;48.730;9.108;2023-09-19T18:01:57;22.10;97.30
6792;DHT22;3433;48.730;9.108;2023-09-19T18:04:45;22.00;97.40
6792;DHT22;3433;48.730;9.108;2023-09-19T18:07:32;21.90;97.60
6792;DHT22;3433;48.730;9.108;2023-09-19T18:10:21;21.80;97.50
6792;DHT22;3433;48.730;9.108;2023-09-19T18:13:08;21.70;97.40
6792;DHT22;3433;48.730;9.108;2023-09-19T18:15:56;21.60;97.60
6792;DHT22;3433;48.730;9.108;2023-09-19T18:18:44;21.50;97.50
6792;DHT22;3433;48.730;9.108;2023-09-19T18:21:33;21.30;97.60
6792;DHT22;3433;48.730;9.108;2023-09-19T18:24:20;21.20;97.60
6792;DHT22;3433;48.730;9.108;2023-09-19T18:27:08;21.10;97.80
6792;DHT22;3433;48.730;9.108;2023-09-19T18:29:56;21.00;97.80